Terminal Aerodrome Forecast
Issued by NWS North Platte, NE

Home | Current Version | Previous Version | Text Only | Print | Product List | Glossary On
Versions: 1 2 3 4 5 6 7 8 9 10 11 12 13 14 15 16 17 18
908
FTUS43 KLBF 172320
TAFLBF
TAF
KLBF 172320Z 1800/1824 18009KT P6SM SCT200
     FM180300 15006KT P6SM SCT200
     FM180500 18008KT P6SM SCT200
     FM180700 21007KT P6SM SCT200
     FM180800 26006KT P6SM SCT200
     FM181200 32005KT P6SM FEW200
     FM182000 34009KT P6SM SKC=

USA.gov is the U.S. government's official web portal to all federal, state and local government web resources and services.